Time;durP1;ratioP1;P1;durP2;ratioP2;P2;SDS_P1;SDS_P2;PMS_P1;PMS_P2;Temp;Humidity;BMP_temperature;BMP_pressure;BME280_temperature;BME280_humidity;BME280_pressure;Samples;Min_cycle;Max_cycle;Signal;HPM_P1;HPM_P2
2023/08/30 00:00:51;;;;;;;24.98;22.27;;;;;;;15.97;100.00;95613.84;6188738;23;20003;-79
2023/08/30 00:03:17;;;;;;;22.93;20.63;;;;;;;16.17;100.00;95627.03;6189563;23;20007;-79
2023/08/30 00:05:42;;;;;;;24.33;21.67;;;;;;;16.38;100.00;95622.47;6189411;23;20011;-78
2023/08/30 00:08:09;;;;;;;26.73;23.50;;;;;;;16.02;100.00;95619.31;6187176;23;20008;-78
2023/08/30 00:10:35;;;;;;;24.57;21.97;;;;;;;16.22;100.00;95611.31;6185812;23;20062;-78
2023/08/30 00:13:08;;;;;;;23.77;21.25;;;;;;;16.17;100.00;95613.78;6214348;23;20008;-78
2023/08/30 00:15:34;;;;;;;24.80;22.23;;;;;;;16.17;100.00;95608.47;6191637;23;20008;-78
2023/08/30 00:18:00;;;;;;;23.50;21.17;;;;;;;16.19;100.00;95601.09;6191609;23;20011;-77
2023/08/30 00:20:26;;;;;;;27.05;23.60;;;;;;;16.33;100.00;95601.91;6215898;23;20023;-78
2023/08/30 00:22:52;;;;;;;27.77;22.30;;;;;;;16.02;100.00;95608.72;6216588;23;20008;-78
2023/08/30 00:25:18;;;;;;;25.30;22.70;;;;;;;16.14;100.00;95606.25;6241012;23;20444;-78
2023/08/30 00:27:43;;;;;;;24.03;21.63;;;;;;;16.14;100.00;95603.59;6186281;23;20012;-78
2023/08/30 00:30:11;;;;;;;25.52;22.90;;;;;;;16.16;100.00;95606.03;6212371;23;20004;-78
2023/08/30 00:32:37;;;;;;;24.98;22.27;;;;;;;16.27;100.00;95606.19;6186945;23;20008;-78
2023/08/30 00:35:03;;;;;;;25.38;22.83;;;;;;;16.25;100.00;95608.22;6187291;23;20348;-78
2023/08/30 00:37:28;;;;;;;26.42;23.70;;;;;;;15.98;100.00;95610.16;6214415;23;20004;-78
2023/08/30 00:39:54;;;;;;;24.58;22.02;;;;;;;16.07;100.00;95607.28;6216414;23;20327;-79
2023/08/30 00:42:19;;;;;;;27.07;24.33;;;;;;;16.14;100.00;95600.94;6190360;23;20317;-78
2023/08/30 00:44:45;;;;;;;26.52;23.70;;;;;;;16.22;100.00;95608.66;6190580;23;20402;-78
2023/08/30 00:47:10;;;;;;;27.55;24.67;;;;;;;16.20;100.00;95607.25;6190577;23;20771;-78
2023/08/30 00:49:36;;;;;;;25.63;23.13;;;;;;;16.17;100.00;95602.38;6190954;23;20008;-78
2023/08/30 00:52:07;;;;;;;27.13;24.37;;;;;;;16.16;100.00;95601.56;6191155;23;20008;-78
2023/08/30 00:54:33;;;;;;;28.05;25.15;;;;;;;16.17;100.00;95610.31;6190883;23;20090;-78
2023/08/30 00:57:01;;;;;;;25.48;22.80;;;;;;;16.19;100.00;95605.59;6215479;23;20026;-78
2023/08/30 00:59:27;;;;;;;26.48;23.73;;;;;;;16.35;100.00;95609.63;6189834;23;20004;-78
2023/08/30 01:01:54;;;;;;;26.20;23.38;;;;;;;15.88;100.00;95603.66;6189594;23;20011;-78
2023/08/30 01:04:32;;;;;;;26.57;23.87;;;;;;;15.94;100.00;95608.94;6190658;23;20042;-78
2023/08/30 01:06:58;;;;;;;26.48;23.88;;;;;;;16.10;100.00;95612.19;6216086;23;20432;-78
2023/08/30 01:09:24;;;;;;;24.77;22.27;;;;;;;15.88;100.00;95608.97;6190521;23;20000;-79
2023/08/30 01:12:36;;;;;;;25.88;22.90;;;;;;;15.87;100.00;95610.00;6214528;23;20008;-78
2023/08/30 01:15:22;;;;;;;24.67;22.15;;;;;;;15.73;100.00;95602.06;6043100;23;20642;-78
2023/08/30 01:17:49;;;;;;;24.73;22.08;;;;;;;15.75;100.00;95594.69;6066913;23;20010;-78
2023/08/30 01:20:20;;;;;;;24.57;21.73;;;;;;;15.77;100.00;95594.50;6167176;23;20035;-78
2023/08/30 01:23:05;;;;;;;24.37;21.97;;;;;;;15.66;100.00;95595.09;6214657;23;20012;-78
2023/08/30 01:26:00;;;;;;;25.13;22.53;;;;;;;15.58;100.00;95596.13;6190716;23;20440;-78
2023/08/30 01:28:29;;;;;;;23.50;21.20;;;;;;;15.68;100.00;95587.78;6190576;23;20444;-78
2023/08/30 01:31:00;;;;;;;24.47;21.80;;;;;;;15.56;100.00;95591.06;6189834;23;20004;-78
2023/08/30 01:33:29;;;;;;;25.37;20.93;;;;;;;15.66;100.00;95589.78;6190491;23;20452;-79
2023/08/30 01:35:58;;;;;;;24.50;21.87;;;;;;;15.54;100.00;95593.09;6216167;23;20070;-78
2023/08/30 01:38:25;;;;;;;24.07;21.53;;;;;;;15.86;100.00;95585.31;6190067;23;20011;-78
2023/08/30 01:40:51;;;;;;;25.73;22.33;;;;;;;15.76;100.00;95588.41;6190550;23;20064;-78
2023/08/30 01:43:18;;;;;;;25.23;22.57;;;;;;;15.71;100.00;95593.50;6191556;23;20011;-78
2023/08/30 01:45:44;;;;;;;23.93;21.53;;;;;;;15.48;100.00;95587.78;6190591;23;20091;-78
2023/08/30 01:48:12;;;;;;;24.20;21.70;;;;;;;15.69;100.00;95589.41;6190335;23;20090;-79
2023/08/30 01:50:40;;;;;;;25.00;22.40;;;;;;;15.69;100.00;95589.41;6214936;23;20007;-79
2023/08/30 01:53:08;;;;;;;23.13;20.73;;;;;;;15.82;100.00;95583.28;6190799;23;20008;-78
2023/08/30 01:55:34;;;;;;;23.67;21.17;;;;;;;15.75;100.00;95584.09;6189684;23;20012;-78
2023/08/30 01:57:59;;;;;;;22.37;20.03;;;;;;;15.79;100.00;95585.34;6189152;23;20066;-79
2023/08/30 02:00:25;;;;;;;23.95;21.13;;;;;;;15.64;100.00;95584.72;6189598;23;20066;-78
2023/08/30 02:02:52;;;;;;;24.92;22.27;;;;;;;15.76;100.00;95582.25;6218497;23;20383;-78
2023/08/30 02:05:19;;;;;;;23.90;21.20;;;;;;;15.79;100.00;95580.03;6245685;23;20008;-78
2023/08/30 02:08:05;;;;;;;22.40;20.08;;;;;;;15.87;100.00;95586.94;6193366;23;20095;-78
2023/08/30 02:10:35;;;;;;;24.17;20.08;;;;;;;15.76;100.00;95584.91;6216966;23;20447;-78
2023/08/30 02:13:04;;;;;;;21.83;19.57;;;;;;;15.81;100.00;95589.59;6193251;23;20004;-78
2023/08/30 02:15:33;;;;;;;23.55;20.35;;;;;;;15.88;100.00;95587.75;6194057;23;20007;-79
2023/08/30 02:17:59;;;;;;;22.33;19.92;;;;;;;15.72;100.00;95583.69;6193530;23;20090;-78
2023/08/30 02:20:30;;;;;;;23.83;21.30;;;;;;;15.82;100.00;95585.94;6193037;23;20054;-79
2023/08/30 02:22:59;;;;;;;22.52;20.25;;;;;;;15.86;100.00;95589.78;6192950;23;20004;-78
2023/08/30 02:25:25;;;;;;;23.33;19.98;;;;;;;15.98;100.00;95598.75;6192175;23;20392;-78
2023/08/30 02:27:51;;;;;;;22.77;20.38;;;;;;;15.84;100.00;95591.84;6244291;23;20028;-78
2023/08/30 02:30:17;;;;;;;22.37;20.07;;;;;;;16.06;100.00;95595.84;6192275;23;20036;-78
2023/08/30 02:32:42;;;;;;;21.97;19.73;;;;;;;15.77;100.00;95597.16;6191123;23;20058;-78
2023/08/30 02:35:08;;;;;;;22.13;19.83;;;;;;;15.89;100.00;95599.97;6192176;23;20007;-78
2023/08/30 02:37:34;;;;;;;21.67;19.48;;;;;;;15.84;100.00;95594.50;6211773;23;20075;-78
2023/08/30 02:40:00;;;;;;;23.45;19.90;;;;;;;15.88;100.00;95598.34;6191871;23;20388;-78
2023/08/30 02:42:31;;;;;;;23.13;20.63;;;;;;;15.89;100.00;95589.38;6191275;23;20065;-78
2023/08/30 02:44:56;;;;;;;21.73;19.53;;;;;;;15.73;100.00;95596.75;6192271;23;20007;-78
2023/08/30 02:47:23;;;;;;;22.47;20.03;;;;;;;15.88;100.00;95601.00;6192803;23;20436;-78
2023/08/30 02:49:49;;;;;;;23.40;20.90;;;;;;;15.87;100.00;95597.53;6192790;23;20027;-78
2023/08/30 02:52:19;;;;;;;22.37;18.73;;;;;;;15.81;100.00;95594.91;6191631;23;20076;-78
2023/08/30 02:54:45;;;;;;;24.85;20.08;;;;;;;15.64;100.00;95594.50;6192819;23;20100;-78
2023/08/30 02:57:10;;;;;;;21.40;19.20;;;;;;;15.54;100.00;95592.28;6216679;23;20011;-78
2023/08/30 02:59:36;;;;;;;21.98;19.70;;;;;;;15.57;100.00;95590.03;6192666;23;20012;-78
2023/08/30 03:02:05;;;;;;;21.60;19.38;;;;;;;15.63;100.00;95591.03;6191458;23;20050;-78
2023/08/30 03:04:30;;;;;;;21.77;19.50;;;;;;;15.66;100.00;95588.00;6191188;23;20436;-78
2023/08/30 03:06:56;;;;;;;21.77;19.60;;;;;;;15.52;100.00;95589.81;6190000;23;20019;-78
2023/08/30 03:09:23;;;;;;;19.73;17.60;;;;;;;15.51;100.00;95587.38;6188774;23;20070;-79
2023/08/30 03:11:49;;;;;;;25.43;20.97;;;;;;;15.64;100.00;95583.91;6187827;23;20004;-78
2023/08/30 03:14:16;;;;;;;21.95;19.63;;;;;;;15.69;100.00;95582.31;6189581;23;20007;-78
2023/08/30 03:16:45;;;;;;;21.13;18.80;;;;;;;15.69;100.00;95582.31;6189187;23;20008;-78
2023/08/30 03:19:10;;;;;;;21.43;19.07;;;;;;;15.82;100.00;95578.78;6189518;23;20079;-79
2023/08/30 03:21:36;;;;;;;22.17;19.77;;;;;;;15.75;100.00;95588.59;6188178;23;20010;-79
2023/08/30 03:24:01;;;;;;;21.07;18.93;;;;;;;15.69;100.00;95592.06;6188475;23;20014;-79
2023/08/30 03:26:27;;;;;;;21.03;18.93;;;;;;;15.71;100.00;95588.19;6187703;23;20061;-78
2023/08/30 03:28:53;;;;;;;20.40;18.30;;;;;;;15.71;100.00;95582.06;6188679;23;20000;-78
2023/08/30 03:31:20;;;;;;;20.80;18.65;;;;;;;15.81;100.00;95577.16;6213297;23;20050;-78
2023/08/30 03:33:49;;;;;;;19.20;17.10;;;;;;;15.59;100.00;95573.91;6187762;23;20455;-79
2023/08/30 03:36:16;;;;;;;21.15;18.98;;;;;;;15.63;100.00;95580.44;6213519;23;20318;-78
2023/08/30 03:38:43;;;;;;;19.67;17.67;;;;;;;15.60;100.00;95580.84;6213379;23;20012;-79
2023/08/30 03:41:10;;;;;;;20.23;18.02;;;;;;;15.62;100.00;95576.13;6188679;23;20022;-79
2023/08/30 03:43:36;;;;;;;20.17;17.90;;;;;;;15.33;100.00;95575.56;6188602;23;20012;-79
2023/08/30 03:46:05;;;;;;;19.50;17.50;;;;;;;15.62;100.00;95584.09;6186805;23;20066;-79
2023/08/30 03:48:31;;;;;;;20.97;18.83;;;;;;;15.66;100.00;95580.06;6188604;23;20062;-79
2023/08/30 03:50:57;;;;;;;20.30;18.10;;;;;;;15.57;100.00;95583.91;6187707;23;20337;-79
2023/08/30 03:53:23;;;;;;;18.20;16.37;;;;;;;15.59;100.00;95581.84;6188290;23;20404;-80
2023/08/30 03:55:49;;;;;;;18.87;16.97;;;;;;;15.45;100.00;95575.75;6188462;23;20008;-79
2023/08/30 03:58:19;;;;;;;19.05;17.05;;;;;;;15.40;100.00;95585.34;6188436;23;20433;-80
2023/08/30 04:00:45;;;;;;;19.07;17.13;;;;;;;15.29;100.00;95587.59;6188241;23;20107;-80
2023/08/30 04:03:13;;;;;;;18.80;16.50;;;;;;;15.24;100.00;95592.69;6188389;23;20004;-79
2023/08/30 04:05:39;;;;;;;19.77;17.10;;;;;;;15.38;100.00;95593.50;6188992;23;20086;-79
2023/08/30 04:08:06;;;;;;;20.70;17.53;;;;;;;15.26;100.00;95587.22;6187956;23;20081;-79
2023/08/30 04:10:39;;;;;;;20.27;18.17;;;;;;;15.15;100.00;95593.09;6187290;23;20508;-79
2023/08/30 04:13:05;;;;;;;23.17;18.77;;;;;;;15.14;100.00;95602.88;6188594;23;20004;-80
2023/08/30 04:15:38;;;;;;;21.37;18.60;;;;;;;15.14;100.00;95597.56;6188967;23;20008;-80
2023/08/30 04:18:05;;;;;;;18.80;16.83;;;;;;;15.23;100.00;95593.72;6212134;23;20004;-80
2023/08/30 04:20:32;;;;;;;20.60;17.90;;;;;;;15.10;100.00;95599.00;6184363;23;20651;-79
2023/08/30 04:23:01;;;;;;;20.03;17.93;;;;;;;15.32;100.00;95589.84;6185962;23;20004;-80
2023/08/30 04:25:28;;;;;;;20.73;18.57;;;;;;;15.28;100.00;95587.78;6187758;23;20008;-79
2023/08/30 04:27:53;;;;;;;21.27;18.97;;;;;;;15.46;100.00;95584.50;6188164;23;20387;-79
2023/08/30 04:30:19;;;;;;;21.67;18.03;;;;;;;15.35;100.00;95583.31;6188502;23;20012;-79
2023/08/30 04:32:45;;;;;;;19.43;17.43;;;;;;;15.44;100.00;95582.09;6189001;23;20004;-80
2023/08/30 04:35:11;;;;;;;19.93;17.73;;;;;;;15.54;100.00;95579.03;6214295;23;20341;-79
2023/08/30 04:37:38;;;;;;;20.43;17.80;;;;;;;15.61;100.00;95585.13;6187888;23;20559;-79
2023/08/30 04:40:09;;;;;;;19.67;17.60;;;;;;;15.57;100.00;95583.91;6213390;23;20675;-79
2023/08/30 04:42:35;;;;;;;20.03;17.67;;;;;;;15.61;100.00;95585.13;6187592;23;20367;-79
2023/08/30 04:45:02;;;;;;;19.95;17.75;;;;;;;15.42;100.00;95583.31;6188400;23;20038;-79
2023/08/30 04:47:32;;;;;;;19.73;17.63;;;;;;;15.58;100.00;95577.56;6189092;23;20080;-79
2023/08/30 04:49:59;;;;;;;19.07;17.03;;;;;;;15.65;100.00;95575.72;6213669;23;20444;-80
2023/08/30 04:52:25;;;;;;;20.33;18.23;;;;;;;15.71;100.00;95576.78;6213624;23;20050;-79
2023/08/30 04:54:56;;;;;;;19.33;17.33;;;;;;;15.47;100.00;95570.28;6188756;23;20087;-79
2023/08/30 04:57:44;;;;;;;20.67;17.77;;;;;;;15.45;100.00;95578.41;6189721;23;20008;-78
2023/08/30 05:00:16;;;;;;;20.80;17.53;;;;;;;15.64;100.00;95582.06;6191380;23;20813;-79
2023/08/30 05:02:44;;;;;;;20.57;18.33;;;;;;;15.65;100.00;95573.06;6189349;23;20012;-80
2023/08/30 05:05:18;;;;;;;21.13;18.93;;;;;;;15.84;100.00;95576.75;6191024;23;20436;-79
2023/08/30 05:07:50;;;;;;;21.38;17.98;;;;;;;15.88;100.00;95577.94;6191159;23;20008;-79
2023/08/30 05:10:15;;;;;;;21.00;18.80;;;;;;;15.91;100.00;95582.03;6188435;23;20058;-79
2023/08/30 05:12:44;;;;;;;19.80;17.33;;;;;;;15.98;100.00;95583.63;6189626;23;20403;-79
2023/08/30 05:15:09;;;;;;;20.43;18.23;;;;;;;15.94;100.00;95584.28;6191076;23;20031;-79
2023/08/30 05:17:35;;;;;;;20.00;17.07;;;;;;;16.02;100.00;95579.53;6214908;23;19999;-79
2023/08/30 05:20:16;;;;;;;18.93;16.93;;;;;;;16.21;100.00;95582.34;6189901;23;20008;-79
2023/08/30 05:22:42;;;;;;;20.20;18.17;;;;;;;16.30;100.00;95574.94;6189823;23;20213;-79
2023/08/30 05:25:07;;;;;;;19.73;17.73;;;;;;;16.24;100.00;95581.94;6189872;23;20010;-79
2023/08/30 05:27:34;;;;;;;21.07;18.33;;;;;;;16.13;100.00;95569.28;6214466;23;20317;-79
2023/08/30 05:29:59;;;;;;;19.20;17.27;;;;;;;16.20;100.00;95578.88;6189987;23;20004;-79
2023/08/30 05:32:25;;;;;;;19.60;17.58;;;;;;;16.10;100.00;95570.56;6189807;23;20039;-80
2023/08/30 05:35:19;;;;;;;21.05;17.48;;;;;;;16.10;100.00;95575.84;6109133;23;20523;-79
2023/08/30 05:38:24;;;;;;;18.57;16.67;;;;;;;16.15;100.00;95577.88;6089910;23;20025;-80
2023/08/30 05:41:02;;;;;;;19.50;17.52;;;;;;;16.23;100.00;95575.81;6123825;23;20015;-79
2023/08/30 05:43:31;;;;;;;20.08;18.02;;;;;;;16.24;100.00;95571.31;6185849;23;20007;-80
2023/08/30 05:46:01;;;;;;;20.00;17.10;;;;;;;16.10;100.00;95580.34;6188407;23;20031;-78
2023/08/30 05:48:30;;;;;;;20.20;17.17;;;;;;;16.22;100.00;95571.50;6189931;23;20090;-80
2023/08/30 05:51:08;;;;;;;20.50;17.80;;;;;;;16.34;100.00;95571.69;6213640;23;20004;-79
2023/08/30 05:53:34;;;;;;;19.80;17.27;;;;;;;16.13;100.00;95566.66;6189487;23;20008;-79
2023/08/30 05:56:00;;;;;;;18.58;16.67;;;;;;;16.21;100.00;95571.72;6188963;23;20004;-79
2023/08/30 05:58:27;;;;;;;20.00;17.00;;;;;;;16.36;100.00;95566.94;6189242;23;20027;-79
2023/08/30 06:00:53;;;;;;;19.52;17.17;;;;;;;16.52;100.00;95575.47;6213871;23;20012;-79
2023/08/30 06:03:19;;;;;;;18.65;16.55;;;;;;;16.81;100.00;95566.94;6189751;23;20095;-78
2023/08/30 06:05:44;;;;;;;17.98;16.15;;;;;;;17.12;100.00;95566.09;6189669;23;20027;-79
2023/08/30 06:08:12;;;;;;;17.50;15.70;;;;;;;17.06;100.00;95564.31;6213622;23;20057;-79
2023/08/30 06:10:38;;;;;;;18.48;16.50;;;;;;;16.98;100.00;95566.44;6187745;23;21115;-79
2023/08/30 06:13:04;;;;;;;16.67;14.95;;;;;;;17.09;100.00;95571.84;6189494;23;20339;-79
2023/08/30 06:15:30;;;;;;;15.77;14.23;;;;;;;17.08;100.00;95572.06;6189117;23;20075;-79
2023/08/30 06:17:55;;;;;;;16.13;14.52;;;;;;;17.13;100.00;95572.22;6213359;23;20424;-79
2023/08/30 06:20:21;;;;;;;20.30;18.20;;;;;;;17.16;100.00;95575.25;6187730;23;20008;-78
2023/08/30 06:22:46;;;;;;;16.13;14.43;;;;;;;16.94;100.00;95579.34;6188870;23;20000;-79
2023/08/30 06:25:17;;;;;;;16.33;14.70;;;;;;;17.24;100.00;95573.41;6189165;23;20007;-79
2023/08/30 06:27:54;;;;;;;16.45;14.77;;;;;;;17.32;100.00;95567.78;6188189;23;20645;-80
2023/08/30 06:30:20;;;;;;;16.55;14.80;;;;;;;17.36;100.00;95568.97;6188254;23;20008;-79
2023/08/30 06:32:45;;;;;;;15.43;13.55;;;;;;;17.24;100.00;95576.06;6214213;23;20034;-79
2023/08/30 06:35:12;;;;;;;14.38;12.88;;;;;;;17.05;100.00;95577.81;6188992;23;20487;-79
2023/08/30 06:37:38;;;;;;;15.20;13.70;;;;;;;17.19;100.00;95576.69;6213890;23;20012;-79
2023/08/30 06:40:04;;;;;;;14.57;13.07;;;;;;;17.48;100.00;95580.53;6188988;23;20437;-79
2023/08/30 06:42:30;;;;;;;16.00;14.25;;;;;;;17.54;100.00;95576.16;6212501;23;20015;-79
2023/08/30 06:44:56;;;;;;;16.98;13.10;;;;;;;17.48;100.00;95579.72;6187975;23;20004;-80
2023/08/30 06:47:22;;;;;;;14.88;11.75;;;;;;;17.05;100.00;95586.59;6188530;23;20051;-79
2023/08/30 06:49:47;;;;;;;14.77;11.23;;;;;;;17.14;100.00;95589.81;6187762;23;20008;-79
2023/08/30 06:52:13;;;;;;;12.48;11.15;;;;;;;17.15;100.00;95586.94;6188663;23;20010;-79
2023/08/30 06:54:46;;;;;;;15.40;12.18;;;;;;;17.49;100.00;95584.81;6188660;23;20008;-79
2023/08/30 06:57:11;;;;;;;13.30;11.90;;;;;;;17.52;100.00;95581.72;6188503;23;20004;-79
2023/08/30 06:59:38;;;;;;;12.60;11.30;;;;;;;17.59;100.00;95585.13;6189748;23;20004;-78
2023/08/30 07:02:04;;;;;;;12.82;10.40;;;;;;;17.61;100.00;95585.72;6213715;23;20420;-78
2023/08/30 07:04:32;;;;;;;13.43;11.43;;;;;;;17.94;100.00;95586.44;6188297;23;20018;-79
2023/08/30 07:07:00;;;;;;;13.80;10.68;;;;;;;17.72;100.00;95586.84;6213861;23;20008;-79
2023/08/30 07:09:31;;;;;;;11.18;9.98;;;;;;;17.93;100.00;95587.50;6188852;23;20004;-78
2023/08/30 07:12:00;;;;;;;12.02;10.68;;;;;;;18.12;100.00;95573.97;6188352;23;20030;-78
2023/08/30 07:14:26;;;;;;;11.68;10.00;;;;;;;18.13;100.00;95574.78;6189126;23;20004;-78
2023/08/30 07:16:51;;;;;;;13.88;10.63;;;;;;;18.21;100.00;95581.63;6214345;23;20486;-79
2023/08/30 07:19:17;;;;;;;10.75;9.65;;;;;;;18.27;100.00;95575.44;6188731;23;20015;-79
2023/08/30 07:21:43;;;;;;;11.68;9.48;;;;;;;17.94;100.00;95576.66;6211483;23;20027;-78
2023/08/30 07:24:09;;;;;;;11.23;10.02;;;;;;;18.35;100.00;95577.81;6213538;23;20034;-78
2023/08/30 07:26:36;;;;;;;10.43;8.88;;;;;;;18.80;100.00;95574.78;6187554;23;20008;-79
2023/08/30 07:29:04;;;;;;;12.40;9.75;;;;;;;19.24;100.00;95567.34;6187325;23;20018;-78
2023/08/30 07:31:36;;;;;;;10.60;9.23;;;;;;;19.13;100.00;95570.81;6185279;23;20008;-78
2023/08/30 07:34:04;;;;;;;9.52;8.40;;;;;;;18.90;100.00;95567.03;6212372;23;20089;-77
2023/08/30 07:36:32;;;;;;;11.02;8.02;;;;;;;19.00;100.00;95559.31;6188854;23;20314;-79
2023/08/30 07:38:58;;;;;;;11.00;8.70;;;;;;;18.65;100.00;95561.84;6189087;23;20010;-78
2023/08/30 07:41:24;;;;;;;11.40;9.02;;;;;;;19.36;100.00;95568.19;6213007;23;20083;-78
2023/08/30 07:43:50;;;;;;;10.82;8.38;;;;;;;19.49;100.00;95562.63;6187938;23;20054;-78
2023/08/30 07:46:15;;;;;;;12.32;7.45;;;;;;;18.99;100.00;95568.34;6187975;23;20000;-78
2023/08/30 07:48:55;;;;;;;9.65;8.38;;;;;;;19.75;100.00;95563.22;6213999;23;20004;-78
2023/08/30 07:51:21;;;;;;;8.43;7.45;;;;;;;20.27;100.00;95551.78;6188466;23;20050;-78
2023/08/30 07:53:47;;;;;;;9.20;7.68;;;;;;;20.33;100.00;95556.97;6213584;23;20467;-79
2023/08/30 07:56:12;;;;;;;9.00;7.30;;;;;;;20.10;100.00;95557.84;6213641;23;20341;-79
2023/08/30 07:58:38;;;;;;;8.48;7.20;;;;;;;20.30;100.00;95554.78;6213114;23;20054;-78
2023/08/30 08:01:03;;;;;;;9.35;7.82;;;;;;;20.68;100.00;95550.72;6187997;23;20081;-78
2023/08/30 08:03:29;;;;;;;10.10;7.25;;;;;;;21.26;100.00;95552.25;6213615;23;20008;-78
2023/08/30 08:05:54;;;;;;;8.55;6.60;;;;;;;20.88;100.00;95553.75;6211604;23;20016;-78
2023/08/30 08:08:20;;;;;;;8.10;6.88;;;;;;;20.47;100.00;95561.00;6183098;23;20314;-78
2023/08/30 08:10:47;;;;;;;8.70;6.53;;;;;;;20.51;100.00;95555.19;6213333;23;20014;-78
2023/08/30 08:13:13;;;;;;;9.40;6.25;;;;;;;20.32;100.00;95563.38;6188369;23;20000;-78
2023/08/30 08:15:43;;;;;;;7.15;6.13;;;;;;;20.39;100.00;95558.72;6188106;23;20011;-78
2023/08/30 08:18:10;;;;;;;8.82;6.57;;;;;;;20.43;100.00;95557.19;6240834;23;20011;-78
2023/08/30 08:20:36;;;;;;;7.72;6.30;;;;;;;20.19;100.00;95553.78;6213292;23;20000;-79
2023/08/30 08:23:03;;;;;;;7.88;5.85;;;;;;;20.60;100.00;95561.78;6187872;23;20010;-78
2023/08/30 08:25:29;;;;;;;8.57;6.43;;;;;;;20.46;100.00;95564.72;6188268;23;20090;-78
2023/08/30 08:27:55;;;;;;;7.55;6.32;;;;;;;21.03;100.00;95553.22;6188007;23;20012;-79
2023/08/30 08:30:22;;;;;;;9.25;7.07;;;;;;;21.14;100.00;95555.00;6211346;23;20395;-79
2023/08/30 08:32:48;;;;;;;10.23;6.32;;;;;;;20.66;100.00;95553.63;6187389;23;20004;-79
2023/08/30 08:35:15;;;;;;;7.05;6.03;;;;;;;20.94;100.00;95560.81;6188807;23;20011;-79
2023/08/30 08:37:41;;;;;;;9.57;5.95;;;;;;;20.70;100.00;95546.75;6189961;23;20004;-76
2023/08/30 08:40:14;;;;;;;7.35;5.88;;;;;;;20.96;100.00;95555.25;6215632;23;20004;-76
2023/08/30 08:42:41;;;;;;;9.93;6.22;;;;;;;21.48;100.00;95549.69;6190148;23;20015;-78
2023/08/30 08:45:10;;;;;;;6.90;5.32;;;;;;;21.34;100.00;95551.03;6188892;23;20383;-78
2023/08/30 08:47:38;;;;;;;6.80;4.90;;;;;;;21.36;100.00;95557.81;6189957;23;20008;-78
2023/08/30 08:50:09;;;;;;;7.88;5.40;;;;;;;20.86;100.00;95553.19;6190424;23;20010;-78
2023/08/30 08:52:34;;;;;;;7.38;5.18;;;;;;;20.81;100.00;95554.97;6214180;23;20121;-77
2023/08/30 08:55:00;;;;;;;7.55;5.28;;;;;;;20.96;100.00;95557.91;6215392;23;20416;-78
2023/08/30 08:57:28;;;;;;;10.27;5.60;;;;;;;20.55;100.00;95557.16;6215216;23;20127;-78
2023/08/30 08:59:56;;;;;;;8.52;5.32;;;;;;;20.80;100.00;95561.38;6190684;23;20011;-78
2023/08/30 09:02:28;;;;;;;8.90;6.00;;;;;;;20.71;100.00;95555.59;6189409;23;20008;-78
2023/08/30 09:04:55;;;;;;;6.93;5.65;;;;;;;20.77;100.00;95557.31;6189620;23;20016;-78
2023/08/30 09:07:21;;;;;;;6.95;5.35;;;;;;;20.90;100.00;95559.69;6215307;23;20008;-78
2023/08/30 09:09:47;;;;;;;8.50;6.70;;;;;;;20.71;100.00;95560.94;6214766;23;20000;-80
2023/08/30 09:12:12;;;;;;;8.48;6.80;;;;;;;20.93;100.00;95561.88;6188738;23;20085;-77
2023/08/30 09:14:53;;;;;;;10.05;7.55;;;;;;;20.76;100.00;95561.03;6189752;23;20440;-77
2023/08/30 09:17:19;;;;;;;8.30;6.78;;;;;;;20.76;100.00;95554.84;6190329;23;20036;-77
2023/08/30 09:19:45;;;;;;;7.30;6.25;;;;;;;21.30;100.00;95550.72;6190366;23;20030;-77
2023/08/30 09:22:10;;;;;;;7.40;5.57;;;;;;;21.53;100.00;95544.44;6239793;23;20000;-77
2023/08/30 09:24:40;;;;;;;7.43;5.90;;;;;;;22.07;100.00;95549.19;6189321;23;20616;-77
2023/08/30 09:27:06;;;;;;;10.07;6.40;;;;;;;21.83;100.00;95554.75;6213170;23;20004;-77
2023/08/30 09:29:35;;;;;;;7.82;5.50;;;;;;;21.65;100.00;95555.81;6188765;23;20439;-78
2023/08/30 09:32:03;;;;;;;7.10;5.65;;;;;;;21.28;100.00;95547.47;6189158;23;20008;-78
2023/08/30 09:34:29;;;;;;;9.68;5.82;;;;;;;22.03;100.00;95542.69;6213993;23;20004;-78
2023/08/30 09:36:55;;;;;;;7.43;5.47;;;;;;;22.09;100.00;95539.00;6189534;23;20309;-78
2023/08/30 09:39:21;;;;;;;7.78;5.53;;;;;;;22.48;100.00;95545.16;6189200;23;20011;-78
2023/08/30 09:41:54;;;;;;;8.73;6.95;;;;;;;22.64;100.00;95542.66;6189092;23;20015;-78
2023/08/30 09:44:21;;;;;;;7.97;5.55;;;;;;;22.78;100.00;95533.94;6189143;23;20039;-79
2023/08/30 09:46:53;;;;;;;10.75;8.27;;;;;;;22.51;100.00;95543.84;6189096;23;20004;-78
2023/08/30 09:49:23;;;;;;;;;;;;;;;22.76;100.00;95546.78;6190754;23;20015;-80
2023/08/30 09:51:51;;;;;;;7.93;5.40;;;;;;;23.40;100.00;95542.53;6213851;23;20599;-80
2023/08/30 09:54:24;;;;;;;6.53;5.47;;;;;;;22.97;100.00;95544.31;6214084;23;20010;-78
2023/08/30 09:56:55;;;;;;;7.30;5.15;;;;;;;23.69;100.00;95533.13;6188890;23;20015;-78
2023/08/30 09:59:22;;;;;;;7.20;5.63;;;;;;;23.22;100.00;95539.19;6189842;23;20079;-79
2023/08/30 10:01:52;;;;;;;8.88;6.07;;;;;;;23.32;100.00;95529.63;6188327;23;20000;-78
2023/08/30 10:04:19;;;;;;;10.52;6.95;;;;;;;23.64;100.00;95532.25;6214989;23;20042;-78
2023/08/30 10:06:57;;;;;;;6.68;4.85;;;;;;;23.88;100.00;95530.03;6188789;23;20008;-78
2023/08/30 10:09:24;;;;;;;23.58;14.88;;;;;;;23.92;100.00;95525.75;6189112;23;20091;-78
2023/08/30 10:11:51;;;;;;;6.03;4.38;;;;;;;24.14;100.00;95523.69;6189459;23;20004;-78
2023/08/30 10:14:17;;;;;;;7.97;4.82;;;;;;;23.29;100.00;95523.69;6188115;23;20135;-78
2023/08/30 10:16:48;;;;;;;7.88;4.70;;;;;;;24.01;100.00;95521.50;6187309;23;20046;-78
2023/08/30 10:19:26;;;;;;;6.35;4.60;;;;;;;23.96;100.00;95516.09;6213558;23;20000;-77
2023/08/30 10:22:17;;;;;;;7.57;4.82;;;;;;;24.11;100.00;95508.13;6212572;23;20004;-78
2023/08/30 10:24:51;;;;;;;6.00;4.50;;;;;;;24.33;100.00;95517.84;6213396;23;20459;-78
2023/08/30 10:27:17;;;;;;;7.50;4.30;;;;;;;24.34;100.00;95514.09;6241503;23;20015;-78
2023/08/30 10:29:44;;;;;;;5.75;4.10;;;;;;;24.91;100.00;95507.78;6213491;23;20012;-79
2023/08/30 10:32:10;;;;;;;6.65;3.70;;;;;;;24.17;100.00;95511.59;6188428;23;20031;-78
2023/08/30 10:34:37;;;;;;;5.32;3.55;;;;;;;24.38;100.00;95517.84;6213978;23;20093;-78
2023/08/30 10:37:06;;;;;;;5.63;3.95;;;;;;;24.35;100.00;95510.34;6187849;23;20668;-79
2023/08/30 10:39:35;;;;;;;6.78;3.15;;;;;;;24.98;100.00;95511.03;6189519;23;20012;-80
2023/08/30 10:42:14;;;;;;;3.22;2.22;;;;;;;24.63;100.00;95509.91;6214140;23;20000;-78
2023/08/30 10:44:49;;;;;;;4.38;2.83;;;;;;;24.28;98.65;95512.44;6189413;23;20000;-78
2023/08/30 10:47:26;;;;;;;5.43;2.80;;;;;;;25.26;96.32;95511.63;6213698;23;20015;-78
2023/08/30 10:49:59;;;;;;;5.47;2.70;;;;;;;24.88;94.43;95508.31;6189616;23;20032;-78
2023/08/30 10:52:26;;;;;;;5.80;2.60;;;;;;;24.70;100.00;95493.53;6214777;23;20097;-79
2023/08/30 10:55:07;;;;;;;4.95;2.88;;;;;;;25.29;93.81;95489.56;6189654;23;20758;-79
2023/08/30 10:57:33;;;;;;;5.35;3.22;;;;;;;25.64;93.04;95496.75;6213448;23;20011;-78
2023/08/30 11:00:07;;;;;;;5.45;3.42;;;;;;;25.22;93.69;95505.13;6241200;23;20019;-78
2023/08/30 11:02:34;;;;;;;5.65;3.78;;;;;;;25.13;92.29;95497.63;6189049;23;20498;-78
2023/08/30 11:05:16;;;;;;;3.92;2.05;;;;;;;24.98;100.00;95504.84;6214034;23;20015;-78
2023/08/30 11:07:48;;;;;;;4.47;2.25;;;;;;;25.06;94.77;95499.75;6188044;23;20022;-78
2023/08/30 11:10:14;;;;;;;4.53;1.90;;;;;;;24.59;88.28;95505.34;6189093;23;20004;-78
2023/08/30 11:12:41;;;;;;;4.10;2.20;;;;;;;24.81;98.53;95499.72;6213535;23;20433;-78
2023/08/30 11:15:08;;;;;;;5.38;2.00;;;;;;;24.97;93.90;95498.66;6213856;23;20000;-79
2023/08/30 11:17:34;;;;;;;3.10;1.80;;;;;;;25.32;92.68;95497.09;6188561;23;20534;-78
2023/08/30 11:20:08;;;;;;;6.88;4.57;;;;;;;25.39;86.01;95500.31;6213340;23;20344;-78